Skelmorlie, United Kingdom
Current Conditions -  °F | °C
As of 11:20 PM on Wednesday 26 Nov 2014 (Local Time) from EGPF Reporting Station
Haze Haze  
Wind Chill: 40°   Ceiling: 600
Heat Index: 43°   Visibility: 2.5mi
Dew Point: 43°   Wind: 5mph
Humidity: 100%   Direction: 60°ENE
Pressure: 29.77"   Gusts: NA
Location:  55.87°N, 4.88°W
Report Text: EGPF 262320Z AUTO 06004KT 4000 BR OVC006 06/06 Q1008
Loading
Personal Weather Stations






























Interactive Weather Map New forecast layout! Learn more

10-Day Weather Forecast

Advertisements
Track Severe Weather on mobile